TimeEDT,TemperatureF,Dew PointF,Humidity,Sea Level PressureIn,VisibilityMPH,Wind Direction,Wind SpeedMPH,Gust SpeedMPH,PrecipitationIn,Events,Conditions,WindDirDegrees,DateUTC
12:53 AM,66.0,60.1,81,30.11,10.0,East,3.5,-,N/A,,Mostly Cloudy,90,2013-04-18 04:53:00
1:53 AM,68.0,60.1,76,30.09,10.0,South,5.8,-,N/A,,Clear,190,2013-04-18 05:53:00
2:53 AM,68.0,60.1,76,30.10,10.0,South,5.8,-,N/A,,Partly Cloudy,180,2013-04-18 06:53:00
3:53 AM,66.9,57.9,73,30.10,10.0,SSE,4.6,-,N/A,,Mostly Cloudy,150,2013-04-18 07:53:00
4:53 AM,66.9,57.0,70,30.10,10.0,SSW,4.6,-,N/A,,Mostly Cloudy,200,2013-04-18 08:53:00
5:53 AM,66.0,57.0,73,30.11,10.0,South,3.5,-,N/A,,Mostly Cloudy,180,2013-04-18 09:53:00
6:53 AM,64.9,57.0,75,30.14,10.0,Variable,3.5,-,N/A,,Mostly Cloudy,0,2013-04-18 10:53:00
7:53 AM,64.9,55.9,73,30.15,10.0,South,4.6,-,N/A,,Scattered Clouds,180,2013-04-18 11:53:00
8:53 AM,66.0,59.0,78,30.16,10.0,South,4.6,-,N/A,,Partly Cloudy,190,2013-04-18 12:53:00
9:53 AM,70.0,60.1,71,30.16,8.0,South,6.9,-,N/A,,Partly Cloudy,190,2013-04-18 13:53:00
10:53 AM,73.0,57.0,57,30.15,7.0,SSW,8.1,-,N/A,,Mostly Cloudy,210,2013-04-18 14:53:00
11:41 AM,73.4,59.0,61,30.18,10.0,Variable,4.6,-,N/A,,Mostly Cloudy,0,2013-04-18 15:41:00
11:53 AM,73.9,59.0,59,30.15,9.0,South,8.1,-,N/A,,Overcast,180,2013-04-18 15:53:00
12:01 PM,75.2,59.0,57,30.17,9.0,South,9.2,-,N/A,,Overcast,180,2013-04-18 16:01:00
12:53 PM,75.0,57.0,53,30.13,8.0,South,9.2,18.4,N/A,,Mostly Cloudy,190,2013-04-18 16:53:00
1:53 PM,78.1,57.9,50,30.11,10.0,Variable,4.6,16.1,N/A,,Mostly Cloudy,0,2013-04-18 17:53:00
2:53 PM,79.0,55.9,45,30.08,10.0,SE,8.1,-,N/A,,Scattered Clouds,140,2013-04-18 18:53:00
3:53 PM,79.0,54.0,42,30.06,10.0,Variable,3.5,18.4,N/A,,Mostly Cloudy,0,2013-04-18 19:53:00
4:53 PM,80.1,54.0,40,30.04,10.0,South,8.1,-,N/A,,Mostly Cloudy,170,2013-04-18 20:53:00
5:53 PM,78.1,55.0,45,30.03,10.0,Variable,6.9,-,N/A,,Overcast,0,2013-04-18 21:53:00
6:53 PM,75.9,57.0,52,30.01,10.0,Calm,Calm,-,N/A,,Mostly Cloudy,0,2013-04-18 22:53:00
7:53 PM,73.9,57.0,55,30.00,10.0,Variable,4.6,-,N/A,,Scattered Clouds,0,2013-04-18 23:53:00
8:53 PM,72.0,57.0,59,30.01,10.0,Variable,3.5,-,N/A,,Clear,0,2013-04-19 00:53:00
9:53 PM,70.0,57.0,63,30.00,10.0,Variable,4.6,-,N/A,,Clear,0,2013-04-19 01:53:00
10:53 PM,69.1,57.9,68,30.00,10.0,Variable,5.8,-,N/A,,Clear,0,2013-04-19 02:53:00
11:53 PM,68.0,59.0,73,30.00,10.0,South,8.1,-,N/A,,Clear,170,2013-04-19 03:53:00